sensor_id;sensor_type;location;lat;lon;timestamp;temperature;humidity
1259;DHT22;619;51.472;6.628;2022-11-23T00:01:26;15.80;90.20
1259;DHT22;619;51.472;6.628;2022-11-23T00:03:59;15.80;90.10
1259;DHT22;619;51.472;6.628;2022-11-23T00:06:25;15.80;90.10
1259;DHT22;619;51.472;6.628;2022-11-23T00:08:52;15.90;90.10
1259;DHT22;619;51.472;6.628;2022-11-23T00:11:19;15.90;90.10
1259;DHT22;619;51.472;6.628;2022-11-23T00:13:47;16.00;90.10
1259;DHT22;619;51.472;6.628;2022-11-23T00:16:21;16.00;90.00
1259;DHT22;619;51.472;6.628;2022-11-23T00:18:51;16.10;90.00
1259;DHT22;619;51.472;6.628;2022-11-23T00:21:18;16.10;90.00
1259;DHT22;619;51.472;6.628;2022-11-23T00:23:44;16.10;90.00
1259;DHT22;619;51.472;6.628;2022-11-23T00:26:11;16.10;89.90
1259;DHT22;619;51.472;6.628;2022-11-23T00:28:37;16.20;90.20
1259;DHT22;619;51.472;6.628;2022-11-23T00:31:19;16.20;89.80
1259;DHT22;619;51.472;6.628;2022-11-23T00:33:55;16.20;89.80
1259;DHT22;619;51.472;6.628;2022-11-23T00:36:21;16.20;89.80
1259;DHT22;619;51.472;6.628;2022-11-23T00:38:48;16.20;89.70
1259;DHT22;619;51.472;6.628;2022-11-23T00:41:20;16.20;89.70
1259;DHT22;619;51.472;6.628;2022-11-23T00:43:46;16.20;89.50
1259;DHT22;619;51.472;6.628;2022-11-23T00:46:20;16.20;89.50
1259;DHT22;619;51.472;6.628;2022-11-23T00:48:50;16.20;89.50
1259;DHT22;619;51.472;6.628;2022-11-23T00:51:21;16.10;89.30
1259;DHT22;619;51.472;6.628;2022-11-23T00:53:50;16.10;89.20
1259;DHT22;619;51.472;6.628;2022-11-23T00:56:17;16.10;89.10
1259;DHT22;619;51.472;6.628;2022-11-23T00:58:47;16.10;89.20
1259;DHT22;619;51.472;6.628;2022-11-23T01:01:14;16.10;89.20
1259;DHT22;619;51.472;6.628;2022-11-23T01:03:45;16.10;89.20
1259;DHT22;619;51.472;6.628;2022-11-23T01:06:19;16.10;89.30
1259;DHT22;619;51.472;6.628;2022-11-23T01:09:12;16.10;89.30
1259;DHT22;619;51.472;6.628;2022-11-23T01:11:38;16.10;89.30
1259;DHT22;619;51.472;6.628;2022-11-23T01:14:04;16.10;89.30
1259;DHT22;619;51.472;6.628;2022-11-23T01:16:38;16.20;89.20
1259;DHT22;619;51.472;6.628;2022-11-23T01:19:09;16.20;89.20
1259;DHT22;619;51.472;6.628;2022-11-23T01:21:35;16.20;89.20
1259;DHT22;619;51.472;6.628;2022-11-23T01:24:12;16.20;89.20
1259;DHT22;619;51.472;6.628;2022-11-23T01:26:41;16.20;89.20
1259;DHT22;619;51.472;6.628;2022-11-23T01:29:08;16.20;89.10
1259;DHT22;619;51.472;6.628;2022-11-23T01:31:36;16.20;89.00
1259;DHT22;619;51.472;6.628;2022-11-23T01:34:03;16.20;89.00
1259;DHT22;619;51.472;6.628;2022-11-23T01:36:31;16.20;88.90
1259;DHT22;619;51.472;6.628;2022-11-23T01:38:58;16.20;88.80
1259;DHT22;619;51.472;6.628;2022-11-23T01:41:30;16.30;88.70
1259;DHT22;619;51.472;6.628;2022-11-23T01:43:56;16.30;88.60
1259;DHT22;619;51.472;6.628;2022-11-23T01:46:24;16.30;88.50
1259;DHT22;619;51.472;6.628;2022-11-23T01:49:05;16.30;88.40
1259;DHT22;619;51.472;6.628;2022-11-23T01:51:35;16.20;88.30
1259;DHT22;619;51.472;6.628;2022-11-23T01:54:06;16.20;88.00
1259;DHT22;619;51.472;6.628;2022-11-23T01:56:42;16.20;88.00
1259;DHT22;619;51.472;6.628;2022-11-23T01:59:11;16.20;88.00
1259;DHT22;619;51.472;6.628;2022-11-23T02:01:42;16.20;87.80
1259;DHT22;619;51.472;6.628;2022-11-23T02:04:11;16.20;87.80
1259;DHT22;619;51.472;6.628;2022-11-23T02:06:42;16.20;87.70
1259;DHT22;619;51.472;6.628;2022-11-23T02:09:11;16.20;87.60
1259;DHT22;619;51.472;6.628;2022-11-23T02:11:40;16.30;87.60
1259;DHT22;619;51.472;6.628;2022-11-23T02:14:06;16.20;87.10
1259;DHT22;619;51.472;6.628;2022-11-23T02:16:36;16.20;87.10
1259;DHT22;619;51.472;6.628;2022-11-23T02:19:11;16.20;87.10
1259;DHT22;619;51.472;6.628;2022-11-23T02:21:42;16.30;87.10
1259;DHT22;619;51.472;6.628;2022-11-23T02:24:10;16.30;87.00
1259;DHT22;619;51.472;6.628;2022-11-23T02:26:40;16.30;86.90
1259;DHT22;619;51.472;6.628;2022-11-23T02:29:10;16.30;86.90
1259;DHT22;619;51.472;6.628;2022-11-23T02:31:37;16.30;86.80
1259;DHT22;619;51.472;6.628;2022-11-23T02:34:02;16.20;86.70
1259;DHT22;619;51.472;6.628;2022-11-23T02:36:44;16.30;86.80
1259;DHT22;619;51.472;6.628;2022-11-23T02:42:24;16.30;86.70
1259;DHT22;619;51.472;6.628;2022-11-23T02:47:37;16.40;86.50
1259;DHT22;619;51.472;6.628;2022-11-23T02:50:06;16.40;86.40
1259;DHT22;619;51.472;6.628;2022-11-23T02:52:31;16.40;86.30
1259;DHT22;619;51.472;6.628;2022-11-23T02:54:57;16.40;86.20
1259;DHT22;619;51.472;6.628;2022-11-23T02:57:23;16.50;86.30
1259;DHT22;619;51.472;6.628;2022-11-23T02:59:48;16.50;86.20
1259;DHT22;619;51.472;6.628;2022-11-23T03:02:14;16.50;86.10
1259;DHT22;619;51.472;6.628;2022-11-23T03:04:39;16.50;86.00
1259;DHT22;619;51.472;6.628;2022-11-23T03:07:05;16.50;85.90
1259;DHT22;619;51.472;6.628;2022-11-23T03:09:33;16.50;85.70
1259;DHT22;619;51.472;6.628;2022-11-23T03:12:03;16.50;85.70
1259;DHT22;619;51.472;6.628;2022-11-23T03:14:29;16.60;85.80
1259;DHT22;619;51.472;6.628;2022-11-23T03:16:54;16.50;85.60
1259;DHT22;619;51.472;6.628;2022-11-23T03:19:20;16.50;86.30
1259;DHT22;619;51.472;6.628;2022-11-23T03:21:48;16.50;85.50
1259;DHT22;619;51.472;6.628;2022-11-23T03:24:16;16.50;85.50
1259;DHT22;619;51.472;6.628;2022-11-23T03:26:44;16.50;85.40
1259;DHT22;619;51.472;6.628;2022-11-23T03:29:10;16.60;85.50
1259;DHT22;619;51.472;6.628;2022-11-23T03:31:35;16.60;85.40
1259;DHT22;619;51.472;6.628;2022-11-23T03:34:01;16.50;85.30
1259;DHT22;619;51.472;6.628;2022-11-23T03:36:26;16.50;85.50
1259;DHT22;619;51.472;6.628;2022-11-23T03:38:52;16.50;85.50
1259;DHT22;619;51.472;6.628;2022-11-23T03:41:18;16.50;85.60
1259;DHT22;619;51.472;6.628;2022-11-23T03:43:43;16.50;85.70
1259;DHT22;619;51.472;6.628;2022-11-23T03:46:09;16.50;85.70
1259;DHT22;619;51.472;6.628;2022-11-23T03:48:34;16.50;85.80
1259;DHT22;619;51.472;6.628;2022-11-23T03:51:02;16.50;85.80
1259;DHT22;619;51.472;6.628;2022-11-23T03:53:28;16.50;85.80
1259;DHT22;619;51.472;6.628;2022-11-23T03:55:56;16.60;85.90
1259;DHT22;619;51.472;6.628;2022-11-23T03:58:22;16.60;85.90
1259;DHT22;619;51.472;6.628;2022-11-23T04:00:48;16.60;85.80
1259;DHT22;619;51.472;6.628;2022-11-23T04:03:13;16.60;85.80
1259;DHT22;619;51.472;6.628;2022-11-23T04:05:42;16.60;85.80
1259;DHT22;619;51.472;6.628;2022-11-23T04:08:12;16.60;85.90
1259;DHT22;619;51.472;6.628;2022-11-23T04:10:38;16.70;86.00
1259;DHT22;619;51.472;6.628;2022-11-23T04:13:03;16.70;86.00
1259;DHT22;619;51.472;6.628;2022-11-23T04:15:29;16.60;86.00
1259;DHT22;619;51.472;6.628;2022-11-23T04:17:57;16.70;86.00
1259;DHT22;619;51.472;6.628;2022-11-23T04:20:25;16.70;86.00
1259;DHT22;619;51.472;6.628;2022-11-23T04:22:52;16.70;86.00
1259;DHT22;619;51.472;6.628;2022-11-23T04:25:17;16.70;86.00
1259;DHT22;619;51.472;6.628;2022-11-23T04:27:44;16.70;86.10
1259;DHT22;619;51.472;6.628;2022-11-23T04:30:10;16.70;86.10
1259;DHT22;619;51.472;6.628;2022-11-23T04:32:35;16.60;86.00
1259;DHT22;619;51.472;6.628;2022-11-23T04:35:01;16.60;86.80
1259;DHT22;619;51.472;6.628;2022-11-23T04:37:29;16.60;86.00
1259;DHT22;619;51.472;6.628;2022-11-23T04:39:57;16.60;86.00
1259;DHT22;619;51.472;6.628;2022-11-23T04:42:23;16.60;85.90
1259;DHT22;619;51.472;6.628;2022-11-23T04:44:48;16.60;85.90
1259;DHT22;619;51.472;6.628;2022-11-23T04:47:14;16.60;86.00
1259;DHT22;619;51.472;6.628;2022-11-23T04:49:42;16.60;85.90
1259;DHT22;619;51.472;6.628;2022-11-23T04:52:12;16.60;85.70
1259;DHT22;619;51.472;6.628;2022-11-23T04:54:40;16.60;85.70
1259;DHT22;619;51.472;6.628;2022-11-23T04:57:08;16.60;85.60
1259;DHT22;619;51.472;6.628;2022-11-23T04:59:34;16.50;85.40
1259;DHT22;619;51.472;6.628;2022-11-23T05:02:02;16.50;85.30
1259;DHT22;619;51.472;6.628;2022-11-23T05:04:27;16.50;85.10
1259;DHT22;619;51.472;6.628;2022-11-23T05:06:53;16.50;84.80
1259;DHT22;619;51.472;6.628;2022-11-23T05:09:19;16.50;84.60
1259;DHT22;619;51.472;6.628;2022-11-23T05:11:44;16.40;84.40
1259;DHT22;619;51.472;6.628;2022-11-23T05:14:12;16.40;84.50
1259;DHT22;619;51.472;6.628;2022-11-23T05:16:40;16.50;84.50
1259;DHT22;619;51.472;6.628;2022-11-23T05:19:08;16.50;84.40
1259;DHT22;619;51.472;6.628;2022-11-23T05:21:36;16.50;84.20
1259;DHT22;619;51.472;6.628;2022-11-23T05:24:02;16.50;84.00
1259;DHT22;619;51.472;6.628;2022-11-23T05:26:28;16.60;84.00
1259;DHT22;619;51.472;6.628;2022-11-23T05:28:53;16.60;84.00
1259;DHT22;619;51.472;6.628;2022-11-23T05:31:19;16.60;83.90
1259;DHT22;619;51.472;6.628;2022-11-23T05:33:45;16.60;83.80
1259;DHT22;619;51.472;6.628;2022-11-23T05:36:10;16.60;83.80
1259;DHT22;619;51.472;6.628;2022-11-23T05:38:39;16.60;83.70
1259;DHT22;619;51.472;6.628;2022-11-23T05:41:05;16.60;83.70
1259;DHT22;619;51.472;6.628;2022-11-23T05:43:31;16.60;83.60
1259;DHT22;619;51.472;6.628;2022-11-23T05:46:01;16.60;83.60
1259;DHT22;619;51.472;6.628;2022-11-23T05:48:29;16.70;83.60
1259;DHT22;619;51.472;6.628;2022-11-23T05:50:59;16.70;83.60
1259;DHT22;619;51.472;6.628;2022-11-23T05:53:27;16.70;83.40
1259;DHT22;619;51.472;6.628;2022-11-23T05:55:58;16.70;83.30
1259;DHT22;619;51.472;6.628;2022-11-23T05:58:24;16.70;83.30
1259;DHT22;619;51.472;6.628;2022-11-23T06:00:56;16.70;83.20
1259;DHT22;619;51.472;6.628;2022-11-23T06:03:22;16.70;83.20
1259;DHT22;619;51.472;6.628;2022-11-23T06:05:50;16.70;83.10
1259;DHT22;619;51.472;6.628;2022-11-23T06:08:15;16.60;83.00
1259;DHT22;619;51.472;6.628;2022-11-23T06:10:41;16.60;83.00
1259;DHT22;619;51.472;6.628;2022-11-23T06:13:09;16.60;83.10
1259;DHT22;619;51.472;6.628;2022-11-23T06:15:34;16.60;83.10
1259;DHT22;619;51.472;6.628;2022-11-23T06:18:00;16.60;83.10
1259;DHT22;619;51.472;6.628;2022-11-23T06:20:28;16.60;83.20
1259;DHT22;619;51.472;6.628;2022-11-23T06:22:54;16.60;83.30
1259;DHT22;619;51.472;6.628;2022-11-23T06:25:21;16.50;83.40
1259;DHT22;619;51.472;6.628;2022-11-23T06:27:59;16.50;83.50
1259;DHT22;619;51.472;6.628;2022-11-23T06:30:27;16.50;83.70
1259;DHT22;619;51.472;6.628;2022-11-23T06:32:52;16.40;83.70
1259;DHT22;619;51.472;6.628;2022-11-23T06:35:18;16.40;83.70
1259;DHT22;619;51.472;6.628;2022-11-23T06:37:47;16.40;83.80
1259;DHT22;619;51.472;6.628;2022-11-23T06:40:13;16.40;83.90
1259;DHT22;619;51.472;6.628;2022-11-23T06:42:38;16.40;83.90
1259;DHT22;619;51.472;6.628;2022-11-23T06:45:04;16.30;83.90
1259;DHT22;619;51.472;6.628;2022-11-23T06:47:30;16.30;84.10
1259;DHT22;619;51.472;6.628;2022-11-23T06:49:56;16.30;84.20
1259;DHT22;619;51.472;6.628;2022-11-23T06:52:21;16.30;84.20
1259;DHT22;619;51.472;6.628;2022-11-23T06:54:49;16.30;84.30
1259;DHT22;619;51.472;6.628;2022-11-23T06:57:17;16.30;84.30
1259;DHT22;619;51.472;6.628;2022-11-23T06:59:43;16.30;84.30
1259;DHT22;619;51.472;6.628;2022-11-23T07:02:10;16.30;84.30
1259;DHT22;619;51.472;6.628;2022-11-23T07:04:39;16.20;84.20
1259;DHT22;619;51.472;6.628;2022-11-23T07:07:06;16.20;84.30
1259;DHT22;619;51.472;6.628;2022-11-23T07:09:34;16.20;84.60
1259;DHT22;619;51.472;6.628;2022-11-23T07:12:00;16.20;84.90
1259;DHT22;619;51.472;6.628;2022-11-23T07:14:26;16.20;85.20
1259;DHT22;619;51.472;6.628;2022-11-23T07:16:51;16.10;85.40
1259;DHT22;619;51.472;6.628;2022-11-23T07:19:17;16.10;85.60
1259;DHT22;619;51.472;6.628;2022-11-23T07:21:44;16.20;85.80
1259;DHT22;619;51.472;6.628;2022-11-23T07:24:09;16.20;86.00
1259;DHT22;619;51.472;6.628;2022-11-23T07:26:38;16.10;86.00
1259;DHT22;619;51.472;6.628;2022-11-23T07:29:03;16.10;86.20
1259;DHT22;619;51.472;6.628;2022-11-23T07:31:29;16.10;86.40
1259;DHT22;619;51.472;6.628;2022-11-23T07:33:54;16.10;86.60
1259;DHT22;619;51.472;6.628;2022-11-23T07:36:23;16.10;86.70
1259;DHT22;619;51.472;6.628;2022-11-23T07:38:49;16.10;86.90
1259;DHT22;619;51.472;6.628;2022-11-23T07:41:14;16.10;87.00
1259;DHT22;619;51.472;6.628;2022-11-23T07:43:42;16.10;87.10
1259;DHT22;619;51.472;6.628;2022-11-23T07:46:08;16.10;87.00
1259;DHT22;619;51.472;6.628;2022-11-23T07:48:36;16.10;86.90
1259;DHT22;619;51.472;6.628;2022-11-23T07:51:04;16.00;86.80
1259;DHT22;619;51.472;6.628;2022-11-23T07:53:32;16.00;86.50
1259;DHT22;619;51.472;6.628;2022-11-23T07:56:00;16.00;86.50
1259;DHT22;619;51.472;6.628;2022-11-23T07:58:27;16.10;86.40
1259;DHT22;619;51.472;6.628;2022-11-23T08:00:55;16.10;86.30
1259;DHT22;619;51.472;6.628;2022-11-23T08:03:23;16.10;86.10
1259;DHT22;619;51.472;6.628;2022-11-23T08:05:50;16.10;85.90
1259;DHT22;619;51.472;6.628;2022-11-23T08:08:18;16.20;85.90
1259;DHT22;619;51.472;6.628;2022-11-23T08:10:46;16.20;85.60
1259;DHT22;619;51.472;6.628;2022-11-23T08:13:13;16.30;85.40
1259;DHT22;619;51.472;6.628;2022-11-23T08:15:39;16.30;85.30
1259;DHT22;619;51.472;6.628;2022-11-23T08:18:05;16.40;85.20
1259;DHT22;619;51.472;6.628;2022-11-23T08:20:33;16.40;84.70
1259;DHT22;619;51.472;6.628;2022-11-23T08:22:58;16.50;84.20
1259;DHT22;619;51.472;6.628;2022-11-23T08:25:26;16.50;83.70
1259;DHT22;619;51.472;6.628;2022-11-23T08:30:21;16.60;82.70
1259;DHT22;619;51.472;6.628;2022-11-23T08:32:51;16.60;82.50
1259;DHT22;619;51.472;6.628;2022-11-23T08:35:17;16.70;82.10
1259;DHT22;619;51.472;6.628;2022-11-23T08:37:42;16.70;81.70
1259;DHT22;619;51.472;6.628;2022-11-23T08:40:11;16.80;81.30
1259;DHT22;619;51.472;6.628;2022-11-23T08:42:36;16.80;80.70
1259;DHT22;619;51.472;6.628;2022-11-23T08:45:02;16.80;80.10
1259;DHT22;619;51.472;6.628;2022-11-23T08:47:31;16.80;79.80
1259;DHT22;619;51.472;6.628;2022-11-23T08:49:56;16.80;79.70
1259;DHT22;619;51.472;6.628;2022-11-23T08:52:22;16.80;79.60
1259;DHT22;619;51.472;6.628;2022-11-23T08:54:48;16.80;79.50
1259;DHT22;619;51.472;6.628;2022-11-23T08:57:13;16.80;79.40
1259;DHT22;619;51.472;6.628;2022-11-23T08:59:39;16.80;79.00
1259;DHT22;619;51.472;6.628;2022-11-23T09:02:05;16.70;78.90
1259;DHT22;619;51.472;6.628;2022-11-23T09:04:31;16.70;78.70
1259;DHT22;619;51.472;6.628;2022-11-23T09:06:58;16.70;78.70
1259;DHT22;619;51.472;6.628;2022-11-23T09:09:26;16.70;78.60
1259;DHT22;619;51.472;6.628;2022-11-23T09:11:52;16.60;78.30
1259;DHT22;619;51.472;6.628;2022-11-23T09:14:18;16.60;78.10
1259;DHT22;619;51.472;6.628;2022-11-23T09:16:43;16.60;77.70
1259;DHT22;619;51.472;6.628;2022-11-23T09:19:12;16.60;77.30
1259;DHT22;619;51.472;6.628;2022-11-23T09:21:40;16.60;76.90
1259;DHT22;619;51.472;6.628;2022-11-23T09:24:11;16.60;76.30
1259;DHT22;619;51.472;6.628;2022-11-23T09:26:38;16.70;76.10
1259;DHT22;619;51.472;6.628;2022-11-23T09:29:04;16.60;75.60
1259;DHT22;619;51.472;6.628;2022-11-23T09:31:30;16.60;75.50
1259;DHT22;619;51.472;6.628;2022-11-23T09:33:58;16.60;75.50
1259;DHT22;619;51.472;6.628;2022-11-23T09:36:24;16.70;75.90
1259;DHT22;619;51.472;6.628;2022-11-23T09:38:51;16.70;76.00
1259;DHT22;619;51.472;6.628;2022-11-23T09:47:19;16.80;75.90
1259;DHT22;619;51.472;6.628;2022-11-23T09:50:03;16.80;75.90
1259;DHT22;619;51.472;6.628;2022-11-23T09:52:41;16.80;76.00
1259;DHT22;619;51.472;6.628;2022-11-23T09:55:18;16.90;76.30
1259;DHT22;619;51.472;6.628;2022-11-23T09:57:48;16.90;76.10
1259;DHT22;619;51.472;6.628;2022-11-23T10:00:19;16.90;75.90
1259;DHT22;619;51.472;6.628;2022-11-23T10:02:45;17.00;75.90
1259;DHT22;619;51.472;6.628;2022-11-23T10:05:22;17.10;76.00
1259;DHT22;619;51.472;6.628;2022-11-23T10:07:58;17.10;75.40
1259;DHT22;619;51.472;6.628;2022-11-23T10:15:51;17.30;74.40
1259;DHT22;619;51.472;6.628;2022-11-23T10:26:35;17.60;72.90
1259;DHT22;619;51.472;6.628;2022-11-23T10:31:47;17.70;71.90
1259;DHT22;619;51.472;6.628;2022-11-23T10:34:18;17.70;71.30
1259;DHT22;619;51.472;6.628;2022-11-23T10:36:47;17.80;71.50
1259;DHT22;619;51.472;6.628;2022-11-23T10:39:20;17.80;71.60
1259;DHT22;619;51.472;6.628;2022-11-23T10:41:48;17.80;71.60
1259;DHT22;619;51.472;6.628;2022-11-23T10:46:50;17.90;70.70
1259;DHT22;619;51.472;6.628;2022-11-23T10:49:17;17.90;70.30
1259;DHT22;619;51.472;6.628;2022-11-23T10:56:56;18.00;69.50
1259;DHT22;619;51.472;6.628;2022-11-23T10:59:31;18.00;69.20
1259;DHT22;619;51.472;6.628;2022-11-23T11:02:14;18.00;69.50
1259;DHT22;619;51.472;6.628;2022-11-23T11:04:43;18.00;69.60
1259;DHT22;619;51.472;6.628;2022-11-23T11:07:28;18.00;69.30
1259;DHT22;619;51.472;6.628;2022-11-23T11:10:00;18.00;69.30
1259;DHT22;619;51.472;6.628;2022-11-23T11:12:28;18.00;68.90
1259;DHT22;619;51.472;6.628;2022-11-23T11:14:55;18.10;69.10
1259;DHT22;619;51.472;6.628;2022-11-23T11:17:28;18.10;68.80
1259;DHT22;619;51.472;6.628;2022-11-23T11:19:53;18.10;68.50
1259;DHT22;619;51.472;6.628;2022-11-23T11:22:32;18.10;68.30
1259;DHT22;619;51.472;6.628;2022-11-23T11:24:59;18.10;68.30
1259;DHT22;619;51.472;6.628;2022-11-23T11:27:28;18.10;68.40
1259;DHT22;619;51.472;6.628;2022-11-23T11:30:22;18.10;68.60
1259;DHT22;619;51.472;6.628;2022-11-23T11:33:19;18.20;68.30
1259;DHT22;619;51.472;6.628;2022-11-23T11:35:50;18.20;68.00
1259;DHT22;619;51.472;6.628;2022-11-23T11:38:24;18.20;67.50
1259;DHT22;619;51.472;6.628;2022-11-23T11:40:52;18.30;67.40
1259;DHT22;619;51.472;6.628;2022-11-23T11:45:59;18.40;67.10
1259;DHT22;619;51.472;6.628;2022-11-23T11:48:43;18.40;66.80
1259;DHT22;619;51.472;6.628;2022-11-23T11:51:23;18.50;66.50
1259;DHT22;619;51.472;6.628;2022-11-23T11:53:58;18.50;66.20
1259;DHT22;619;51.472;6.628;2022-11-23T11:56:45;18.50;66.20
1259;DHT22;619;51.472;6.628;2022-11-23T12:09:39;18.70;65.40
1259;DHT22;619;51.472;6.628;2022-11-23T12:12:11;18.70;65.40
1259;DHT22;619;51.472;6.628;2022-11-23T12:14:40;18.70;65.90
1259;DHT22;619;51.472;6.628;2022-11-23T12:17:19;18.70;65.60
1259;DHT22;619;51.472;6.628;2022-11-23T12:25:37;18.80;66.00
1259;DHT22;619;51.472;6.628;2022-11-23T12:44:54;19.60;63.80
1259;DHT22;619;51.472;6.628;2022-11-23T12:58:28;18.30;64.70
1259;DHT22;619;51.472;6.628;2022-11-23T13:00:59;18.00;65.50
1259;DHT22;619;51.472;6.628;2022-11-23T13:17:12;17.10;69.30
1259;DHT22;619;51.472;6.628;2022-11-23T13:19:53;17.00;68.80
1259;DHT22;619;51.472;6.628;2022-11-23T13:22:21;17.00;69.00
1259;DHT22;619;51.472;6.628;2022-11-23T13:30:28;16.70;69.00
1259;DHT22;619;51.472;6.628;2022-11-23T13:40:43;16.40;69.30
1259;DHT22;619;51.472;6.628;2022-11-23T13:43:33;16.40;69.70
1259;DHT22;619;51.472;6.628;2022-11-23T13:46:26;16.30;69.70
1259;DHT22;619;51.472;6.628;2022-11-23T13:48:58;16.20;69.60
1259;DHT22;619;51.472;6.628;2022-11-23T13:51:31;16.10;69.80
1259;DHT22;619;51.472;6.628;2022-11-23T13:54:03;16.00;69.90
1259;DHT22;619;51.472;6.628;2022-11-23T13:56:40;16.00;70.10
1259;DHT22;619;51.472;6.628;2022-11-23T13:59:35;15.90;70.00
1259;DHT22;619;51.472;6.628;2022-11-23T14:04:40;15.80;70.40
1259;DHT22;619;51.472;6.628;2022-11-23T14:07:19;15.70;70.50
1259;DHT22;619;51.472;6.628;2022-11-23T14:09:53;15.70;71.50
1259;DHT22;619;51.472;6.628;2022-11-23T14:15:31;15.60;71.00
1259;DHT22;619;51.472;6.628;2022-11-23T21:34:23;6.80;99.90
1259;DHT22;619;51.472;6.628;2022-11-23T21:36:53;7.00;99.90
1259;DHT22;619;51.472;6.628;2022-11-23T21:39:19;7.90;99.90
1259;DHT22;619;51.472;6.628;2022-11-23T21:41:45;8.80;99.90
1259;DHT22;619;51.472;6.628;2022-11-23T21:44:11;9.80;99.90
1259;DHT22;619;51.472;6.628;2022-11-23T21:46:38;10.60;99.90
1259;DHT22;619;51.472;6.628;2022-11-23T21:49:10;11.10;99.90
1259;DHT22;619;51.472;6.628;2022-11-23T21:51:36;11.70;99.90
1259;DHT22;619;51.472;6.628;2022-11-23T21:54:07;12.20;99.90
1259;DHT22;619;51.472;6.628;2022-11-23T21:56:34;12.60;99.90
1259;DHT22;619;51.472;6.628;2022-11-23T21:59:02;13.00;99.90
1259;DHT22;619;51.472;6.628;2022-11-23T22:01:32;13.30;99.90
1259;DHT22;619;51.472;6.628;2022-11-23T22:04:03;13.50;99.40
1259;DHT22;619;51.472;6.628;2022-11-23T22:06:30;13.70;98.70
1259;DHT22;619;51.472;6.628;2022-11-23T22:08:57;13.80;97.90
1259;DHT22;619;51.472;6.628;2022-11-23T22:11:31;14.00;97.40
1259;DHT22;619;51.472;6.628;2022-11-23T22:14:02;14.10;97.00
1259;DHT22;619;51.472;6.628;2022-11-23T22:16:44;14.20;96.60
1259;DHT22;619;51.472;6.628;2022-11-23T22:19:11;14.20;96.20
1259;DHT22;619;51.472;6.628;2022-11-23T22:21:44;14.30;95.90
1259;DHT22;619;51.472;6.628;2022-11-23T22:24:13;14.30;95.80
1259;DHT22;619;51.472;6.628;2022-11-23T22:26:41;14.30;95.70
1259;DHT22;619;51.472;6.628;2022-11-23T22:29:11;14.40;95.60
1259;DHT22;619;51.472;6.628;2022-11-23T22:31:37;14.40;95.40
1259;DHT22;619;51.472;6.628;2022-11-23T22:34:05;14.50;95.20
1259;DHT22;619;51.472;6.628;2022-11-23T22:36:35;14.50;95.00
1259;DHT22;619;51.472;6.628;2022-11-23T22:39:03;14.50;94.90
1259;DHT22;619;51.472;6.628;2022-11-23T22:41:31;14.50;94.90
1259;DHT22;619;51.472;6.628;2022-11-23T22:44:01;14.60;94.90
1259;DHT22;619;51.472;6.628;2022-11-23T22:46:27;14.60;94.80
1259;DHT22;619;51.472;6.628;2022-11-23T22:48:52;14.70;94.90
1259;DHT22;619;51.472;6.628;2022-11-23T22:51:20;14.70;94.90
1259;DHT22;619;51.472;6.628;2022-11-23T22:53:58;14.80;95.00
1259;DHT22;619;51.472;6.628;2022-11-23T22:56:25;14.80;95.00
1259;DHT22;619;51.472;6.628;2022-11-23T22:58:51;14.90;95.00
1259;DHT22;619;51.472;6.628;2022-11-23T23:01:17;15.00;95.10
1259;DHT22;619;51.472;6.628;2022-11-23T23:03:44;15.00;95.00
1259;DHT22;619;51.472;6.628;2022-11-23T23:06:19;15.10;94.90
1259;DHT22;619;51.472;6.628;2022-11-23T23:08:50;15.20;94.90
1259;DHT22;619;51.472;6.628;2022-11-23T23:11:16;15.30;94.80
1259;DHT22;619;51.472;6.628;2022-11-23T23:13:44;15.30;94.60
1259;DHT22;619;51.472;6.628;2022-11-23T23:16:11;15.40;94.40
1259;DHT22;619;51.472;6.628;2022-11-23T23:18:37;15.40;94.60
1259;DHT22;619;51.472;6.628;2022-11-23T23:23:35;15.40;94.00
1259;DHT22;619;51.472;6.628;2022-11-23T23:26:01;15.40;93.90
1259;DHT22;619;51.472;6.628;2022-11-23T23:28:27;15.40;93.90
1259;DHT22;619;51.472;6.628;2022-11-23T23:30:59;15.40;93.80
1259;DHT22;619;51.472;6.628;2022-11-23T23:33:25;15.40;93.80
1259;DHT22;619;51.472;6.628;2022-11-23T23:35:52;15.40;93.70
1259;DHT22;619;51.472;6.628;2022-11-23T23:38:18;15.40;93.60
1259;DHT22;619;51.472;6.628;2022-11-23T23:40:46;15.40;93.60
1259;DHT22;619;51.472;6.628;2022-11-23T23:43:14;15.30;93.50
1259;DHT22;619;51.472;6.628;2022-11-23T23:45:44;15.30;93.40
1259;DHT22;619;51.472;6.628;2022-11-23T23:48:10;15.30;93.40
1259;DHT22;619;51.472;6.628;2022-11-23T23:50:37;15.30;93.30
1259;DHT22;619;51.472;6.628;2022-11-23T23:53:05;15.30;93.30
1259;DHT22;619;51.472;6.628;2022-11-23T23:55:31;15.30;93.20
1259;DHT22;619;51.472;6.628;2022-11-23T23:57:58;15.20;93.20
